Time;durP1;ratioP1;P1;durP2;ratioP2;P2;SDS_P1;SDS_P2;PMS_P1;PMS_P2;Temp;Humidity;BMP_temperature;BMP_pressure;BME280_temperature;BME280_humidity;BME280_pressure;Samples;Min_cycle;Max_cycle;Signal;HPM_P1;HPM_P2
2022/04/07 00:00:19;;;;;;;9.85;4.95;;;9.40;99.90;;;;;;4993907;28;20057;-74
2022/04/07 00:02:45;;;;;;;16.40;5.50;;;9.40;99.90;;;;;;4977929;28;20127;-74
2022/04/07 00:05:11;;;;;;;10.65;4.32;;;9.40;99.90;;;;;;4981174;28;20066;-71
2022/04/07 00:07:37;;;;;;;13.25;4.82;;;9.40;99.90;;;;;;4998548;28;20505;-74
2022/04/07 00:10:03;;;;;;;11.38;4.53;;;9.40;99.90;;;;;;4998592;28;20046;-73
2022/04/07 00:12:31;;;;;;;12.20;4.85;;;9.40;99.90;;;;;;4982054;28;20054;-74
2022/04/07 00:14:59;;;;;;;13.80;4.65;;;9.40;99.90;;;;;;4998767;28;20076;-72
2022/04/07 00:17:25;;;;;;;9.63;4.20;;;9.40;99.90;;;;;;4979879;28;20054;-72
2022/04/07 00:19:51;;;;;;;10.20;4.00;;;9.40;99.90;;;;;;4998760;28;20058;-73
2022/04/07 00:22:17;;;;;;;14.55;4.22;;;9.30;99.90;;;;;;4998721;28;20042;-74
2022/04/07 00:24:43;;;;;;;10.18;3.80;;;9.30;99.90;;;;;;4997563;28;20057;-73
2022/04/07 00:27:08;;;;;;;7.22;3.28;;;9.30;99.90;;;;;;4997872;28;20057;-73
2022/04/07 00:29:34;;;;;;;8.15;3.40;;;9.20;99.90;;;;;;4998398;28;20054;-73
2022/04/07 00:32:03;;;;;;;9.35;3.15;;;9.20;99.90;;;;;;4997836;28;20065;-72
2022/04/07 00:34:29;;;;;;;12.70;2.90;;;9.10;99.90;;;;;;4997885;28;20046;-73
2022/04/07 00:36:55;;;;;;;9.95;3.40;;;9.10;99.90;;;;;;4997982;28;20053;-74
2022/04/07 00:39:21;;;;;;;12.32;3.80;;;9.10;99.90;;;;;;4997835;28;20046;-73
2022/04/07 00:41:46;;;;;;;8.43;3.17;;;9.10;99.90;;;;;;4981147;28;20057;-73
2022/04/07 00:44:12;;;;;;;9.93;3.45;;;9.10;99.90;;;;;;4997300;28;20068;-74
2022/04/07 00:46:38;;;;;;;7.97;3.50;;;9.00;99.90;;;;;;4996542;28;20129;-73
2022/04/07 00:49:05;;;;;;;10.38;4.22;;;9.00;99.90;;;;;;4980145;28;20054;-73
2022/04/07 00:51:30;;;;;;;10.45;3.80;;;9.00;99.90;;;;;;4980744;28;20058;-71
2022/04/07 00:53:57;;;;;;;11.52;4.32;;;9.00;99.90;;;;;;4997783;28;20112;-72
2022/04/07 00:56:24;;;;;;;10.43;4.03;;;9.00;99.90;;;;;;4997633;28;20068;-72
2022/04/07 00:58:49;;;;;;;10.35;4.45;;;9.00;99.90;;;;;;4997772;28;20426;-71
2022/04/07 01:01:20;;;;;;;12.00;5.07;;;9.00;99.90;;;;;;4997550;28;20138;-73
2022/04/07 01:03:47;;;;;;;9.55;4.13;;;9.00;99.90;;;;;;4997518;28;20453;-74
2022/04/07 01:06:12;;;;;;;13.98;3.70;;;9.00;99.90;;;;;;4980416;28;20062;-73
2022/04/07 01:08:38;;;;;;;8.02;3.50;;;9.00;99.90;;;;;;4996850;28;20046;-73
2022/04/07 01:11:04;;;;;;;10.77;3.55;;;9.00;99.90;;;;;;4997400;28;20050;-73
2022/04/07 01:13:50;;;;;;;8.27;3.33;;;8.90;99.90;;;;;;4979771;28;20121;-72
2022/04/07 01:16:17;;;;;;;7.47;3.17;;;9.00;99.90;;;;;;4979550;28;20132;-72
2022/04/07 01:18:44;;;;;;;11.80;4.00;;;8.90;99.90;;;;;;4980233;28;20058;-73
2022/04/07 01:21:11;;;;;;;7.55;2.80;;;9.10;99.90;;;;;;4979866;28;20085;-73
2022/04/07 01:23:38;;;;;;;7.82;3.40;;;9.00;99.90;;;;;;4997722;28;20433;-72
2022/04/07 01:26:08;;;;;;;7.70;3.15;;;9.00;99.90;;;;;;4980575;28;20050;-73
2022/04/07 01:28:34;;;;;;;9.18;3.53;;;9.10;99.90;;;;;;4997256;28;20101;-72
2022/04/07 01:31:00;;;;;;;8.13;3.08;;;9.00;99.90;;;;;;4996961;28;20051;-72
2022/04/07 01:33:25;;;;;;;9.68;3.40;;;9.00;99.90;;;;;;4996897;28;20050;-73
2022/04/07 01:35:52;;;;;;;8.38;3.40;;;9.00;99.90;;;;;;4997222;28;20046;-72
2022/04/07 01:38:19;;;;;;;10.35;3.35;;;9.00;99.90;;;;;;4996674;28;20111;-73
2022/04/07 01:40:46;;;;;;;10.18;3.70;;;9.00;99.90;;;;;;4996949;28;20333;-74
2022/04/07 01:43:13;;;;;;;8.30;3.97;;;9.00;99.90;;;;;;4979815;28;20159;-74
2022/04/07 01:45:40;;;;;;;17.58;4.53;;;8.90;99.90;;;;;;4978978;28;20046;-73
2022/04/07 01:48:08;;;;;;;12.15;4.85;;;8.90;99.90;;;;;;4996643;28;20085;-75
2022/04/07 01:50:36;;;;;;;12.85;5.32;;;9.00;99.90;;;;;;4979433;28;20050;-75
2022/04/07 01:53:02;;;;;;;10.60;5.40;;;8.90;99.90;;;;;;4979510;28;20058;-73
2022/04/07 01:55:29;;;;;;;16.63;6.43;;;8.90;99.90;;;;;;4995966;28;20474;-73
2022/04/07 01:57:55;;;;;;;12.48;7.03;;;8.90;99.90;;;;;;4963511;28;20060;-73
2022/04/07 02:00:21;;;;;;;18.10;6.90;;;8.90;99.90;;;;;;4996556;28;20049;-71
2022/04/07 02:02:47;;;;;;;13.85;7.07;;;8.90;99.90;;;;;;4978992;28;20055;-72
2022/04/07 02:05:13;;;;;;;15.23;6.30;;;8.90;99.90;;;;;;4979170;28;20054;-73
2022/04/07 02:07:41;;;;;;;18.60;5.85;;;8.90;99.90;;;;;;4996344;28;20050;-72
2022/04/07 02:10:08;;;;;;;12.23;5.45;;;8.90;99.90;;;;;;4996356;28;20038;-72
2022/04/07 02:12:36;;;;;;;17.30;5.95;;;8.90;99.90;;;;;;4996295;28;20082;-72
2022/04/07 02:15:02;;;;;;;19.38;6.32;;;8.90;99.90;;;;;;4996399;28;20058;-72
2022/04/07 02:17:27;;;;;;;15.43;5.25;;;9.30;99.90;;;;;;4977744;28;20142;-71
2022/04/07 02:19:55;;;;;;;13.18;5.03;;;8.90;99.90;;;;;;4995170;28;20046;-73
2022/04/07 02:22:21;;;;;;;12.68;4.53;;;8.90;99.90;;;;;;4996324;28;20046;-72
2022/04/07 02:24:47;;;;;;;15.95;5.38;;;8.90;99.90;;;;;;4979178;28;20043;-72
2022/04/07 02:27:17;;;;;;;15.77;5.07;;;8.90;99.90;;;;;;4995392;28;20042;-74
2022/04/07 02:29:43;;;;;;;18.17;5.28;;;8.90;99.90;;;;;;4978581;28;20057;-73
2022/04/07 02:32:11;;;;;;;19.38;5.63;;;8.90;99.90;;;;;;4978558;28;20042;-74
2022/04/07 02:34:37;;;;;;;15.00;5.45;;;8.90;99.90;;;;;;4995881;28;20046;-74
2022/04/07 02:37:03;;;;;;;18.67;5.70;;;8.90;99.90;;;;;;4995657;28;20042;-71
2022/04/07 02:39:29;;;;;;;22.10;6.28;;;8.90;99.90;;;;;;4995830;28;20069;-72
2022/04/07 02:41:54;;;;;;;18.40;5.95;;;8.90;99.90;;;;;;4995879;28;20042;-73
2022/04/07 02:44:20;;;;;;;17.17;5.20;;;8.90;99.90;;;;;;4995651;28;20344;-73
2022/04/07 02:46:46;;;;;;;17.70;5.57;;;8.90;99.90;;;;;;4994893;28;20038;-71
2022/04/07 02:49:12;;;;;;;18.40;6.13;;;8.90;99.90;;;;;;4996082;28;20394;-73
2022/04/07 02:51:37;;;;;;;17.25;5.45;;;9.10;99.90;;;;;;4995759;28;20126;-73
2022/04/07 02:54:03;;;;;;;15.98;5.70;;;8.90;99.90;;;;;;4978784;28;20113;-71
2022/04/07 02:56:29;;;;;;;20.42;6.80;;;8.90;99.90;;;;;;4962515;28;20046;-73
2022/04/07 02:58:55;;;;;;;16.00;5.55;;;8.90;99.90;;;;;;4978214;28;20046;-72
2022/04/07 03:01:21;;;;;;;20.58;5.70;;;8.90;99.90;;;;;;4979220;28;20046;-72
2022/04/07 03:03:48;;;;;;;14.95;5.25;;;8.90;99.90;;;;;;4995979;28;20451;-72
2022/04/07 03:06:15;;;;;;;17.50;5.60;;;8.90;99.90;;;;;;4995471;28;20090;-73
2022/04/07 03:08:41;;;;;;;13.93;4.97;;;8.90;99.90;;;;;;4978572;28;20046;-74
2022/04/07 03:11:08;;;;;;;13.20;5.25;;;8.90;99.90;;;;;;4977420;28;20048;-73
2022/04/07 03:13:36;;;;;;;18.92;6.10;;;9.10;99.90;;;;;;4995458;28;20077;-73
2022/04/07 03:16:02;;;;;;;14.73;5.45;;;8.90;99.90;;;;;;4994049;28;20046;-75
2022/04/07 03:18:28;;;;;;;14.65;6.00;;;8.90;99.90;;;;;;4978125;28;20051;-74
2022/04/07 03:20:53;;;;;;;17.70;5.55;;;8.90;99.90;;;;;;4994953;28;20458;-72
2022/04/07 03:23:19;;;;;;;24.13;5.68;;;8.90;99.90;;;;;;4995723;28;20447;-72
2022/04/07 03:25:46;;;;;;;14.65;5.18;;;8.90;99.90;;;;;;4994442;28;20490;-73
2022/04/07 03:28:11;;;;;;;16.77;5.80;;;8.90;99.90;;;;;;4977655;28;20061;-74
2022/04/07 03:30:37;;;;;;;17.75;5.10;;;8.90;99.90;;;;;;4993999;28;20122;-72
2022/04/07 03:33:03;;;;;;;16.63;4.72;;;8.90;99.90;;;;;;4978456;28;20362;-73
2022/04/07 03:35:28;;;;;;;18.25;5.22;;;8.80;99.90;;;;;;4995010;28;20446;-74
2022/04/07 03:37:54;;;;;;;17.75;4.80;;;8.80;99.90;;;;;;4996544;28;20130;-72
2022/04/07 03:40:20;;;;;;;15.98;5.03;;;8.80;99.90;;;;;;4999278;28;20057;-71
2022/04/07 03:42:45;;;;;;;18.42;4.40;;;8.80;99.90;;;;;;4981961;28;20178;-74
2022/04/07 03:45:11;;;;;;;13.60;4.03;;;8.80;99.90;;;;;;4997948;28;20069;-71
2022/04/07 03:47:37;;;;;;;16.08;4.38;;;8.80;99.90;;;;;;4998353;28;20046;-73
2022/04/07 03:50:02;;;;;;;10.85;4.00;;;8.80;99.90;;;;;;4998789;28;20130;-72
2022/04/07 03:52:28;;;;;;;18.80;4.40;;;8.80;99.90;;;;;;4998439;28;20128;-72
2022/04/07 03:54:54;;;;;;;13.65;3.67;;;8.80;99.90;;;;;;4998131;28;20046;-73
2022/04/07 03:57:21;;;;;;;17.58;4.45;;;8.80;99.90;;;;;;5000108;28;20198;-71
2022/04/07 03:59:47;;;;;;;13.80;3.92;;;8.80;99.90;;;;;;5003615;28;20038;-72
2022/04/07 04:02:13;;;;;;;15.20;3.90;;;8.70;99.90;;;;;;4984261;28;20049;-73
2022/04/07 04:04:39;;;;;;;14.10;3.92;;;8.70;99.90;;;;;;4998519;28;20042;-73
2022/04/07 04:07:05;;;;;;;13.50;3.35;;;8.70;99.90;;;;;;4998367;28;20046;-73
2022/04/07 04:09:32;;;;;;;15.48;4.10;;;8.80;99.90;;;;;;4998536;28;20046;-72
2022/04/07 04:11:57;;;;;;;16.50;4.30;;;8.80;99.90;;;;;;4998113;28;20097;-72
2022/04/07 04:14:23;;;;;;;15.80;3.92;;;8.80;99.90;;;;;;4998291;28;20078;-72
2022/04/07 04:16:49;;;;;;;14.55;3.97;;;8.80;99.90;;;;;;4981676;28;20421;-72
2022/04/07 04:19:15;;;;;;;14.02;4.50;;;8.80;99.90;;;;;;4998647;28;20090;-74
2022/04/07 04:21:40;;;;;;;21.08;5.05;;;9.00;99.90;;;;;;4998323;28;20125;-73
2022/04/07 04:24:06;;;;;;;18.67;4.60;;;8.90;99.90;;;;;;4998676;28;20432;-72
2022/04/07 04:26:32;;;;;;;19.98;5.00;;;8.90;99.90;;;;;;4977736;28;20050;-72
2022/04/07 04:28:57;;;;;;;21.83;5.57;;;8.80;99.90;;;;;;4997845;28;20046;-73
2022/04/07 04:31:24;;;;;;;19.08;5.50;;;8.80;99.90;;;;;;4998281;28;20082;-71
2022/04/07 04:33:51;;;;;;;19.55;5.80;;;8.80;99.90;;;;;;4997985;28;20046;-73
2022/04/07 04:36:17;;;;;;;19.98;5.45;;;8.80;99.90;;;;;;4998262;28;20053;-73
2022/04/07 04:38:42;;;;;;;20.10;4.72;;;8.80;99.90;;;;;;4980454;28;20463;-73
2022/04/07 04:41:09;;;;;;;21.75;5.38;;;8.80;99.90;;;;;;4997608;28;20471;-73
2022/04/07 04:43:34;;;;;;;22.80;5.82;;;8.70;99.90;;;;;;4998143;28;20105;-72
2022/04/07 04:46:00;;;;;;;32.50;6.60;;;8.70;99.90;;;;;;4980752;28;20101;-72
2022/04/07 04:48:26;;;;;;;21.92;5.90;;;8.70;99.90;;;;;;4997569;28;20061;-73
2022/04/07 04:50:51;;;;;;;26.23;5.93;;;8.70;99.90;;;;;;4996416;28;20058;-74
2022/04/07 04:53:17;;;;;;;30.40;6.40;;;8.70;99.90;;;;;;4996916;28;20058;-75
2022/04/07 04:55:42;;;;;;;25.48;6.38;;;8.70;99.90;;;;;;4980554;28;20035;-74
2022/04/07 04:58:08;;;;;;;27.25;6.45;;;8.70;99.90;;;;;;4980581;28;20050;-71
2022/04/07 05:00:33;;;;;;;19.60;5.50;;;8.60;99.90;;;;;;4997550;28;20522;-72
2022/04/07 05:02:59;;;;;;;24.88;5.40;;;8.60;99.90;;;;;;4997686;28;20082;-74
2022/04/07 05:05:24;;;;;;;16.50;4.43;;;8.60;99.90;;;;;;4996680;28;20076;-74
2022/04/07 05:07:50;;;;;;;10.73;3.25;;;8.60;99.90;;;;;;4980425;28;20466;-74
2022/04/07 05:10:16;;;;;;;8.45;2.90;;;8.50;99.90;;;;;;4996900;28;20057;-75
2022/04/07 05:12:41;;;;;;;11.65;2.90;;;8.40;99.90;;;;;;4959965;28;20098;-74
2022/04/07 05:15:07;;;;;;;11.48;3.22;;;8.30;99.90;;;;;;4960743;28;20059;-73
2022/04/07 05:17:33;;;;;;;19.17;4.43;;;8.30;99.90;;;;;;4977470;28;20105;-75
2022/04/07 05:19:59;;;;;;;25.55;4.70;;;8.30;99.90;;;;;;4978076;28;20050;-73
2022/04/07 05:22:24;;;;;;;25.75;5.60;;;8.30;99.90;;;;;;4978004;28;20043;-76
2022/04/07 05:24:50;;;;;;;22.80;5.38;;;8.30;99.90;;;;;;4977151;28;20039;-76
2022/04/07 05:27:17;;;;;;;24.27;5.80;;;8.30;99.90;;;;;;4960602;28;20057;-74
2022/04/07 05:29:42;;;;;;;20.15;5.32;;;8.30;99.90;;;;;;4960478;28;20047;-74
2022/04/07 05:32:08;;;;;;;21.30;5.20;;;8.30;99.90;;;;;;4977422;28;20074;-75
2022/04/07 05:34:33;;;;;;;21.02;4.28;;;8.30;99.90;;;;;;4960208;28;20057;-74
2022/04/07 05:36:59;;;;;;;17.45;3.88;;;8.20;99.90;;;;;;4960502;28;20046;-74
2022/04/07 05:39:25;;;;;;;15.90;3.45;;;8.20;99.90;;;;;;4982822;28;20046;-74
2022/04/07 05:41:50;;;;;;;21.75;4.22;;;8.10;99.90;;;;;;4976754;28;20086;-74
2022/04/07 05:44:16;;;;;;;11.23;2.78;;;8.10;99.90;;;;;;4997079;28;20078;-75
2022/04/07 05:46:41;;;;;;;6.70;1.60;;;7.90;99.90;;;;;;4979589;28;20050;-75
2022/04/07 05:49:10;;;;;;;4.93;1.30;;;7.60;99.90;;;;;;4979175;28;20046;-76
2022/04/07 05:51:36;;;;;;;4.93;1.20;;;7.40;99.90;;;;;;4979287;28;20038;-74
2022/04/07 05:54:01;;;;;;;8.80;1.38;;;7.20;99.90;;;;;;4996688;28;20034;-75
2022/04/07 05:56:27;;;;;;;9.77;1.50;;;7.00;99.90;;;;;;4994976;28;20129;-76
2022/04/07 05:58:52;;;;;;;8.85;1.70;;;6.90;99.90;;;;;;4979321;28;20373;-74
2022/04/07 06:01:18;;;;;;;8.68;1.50;;;6.80;99.90;;;;;;4978822;28;20050;-76
2022/04/07 06:03:44;;;;;;;8.45;1.60;;;6.80;99.90;;;;;;4978914;28;20057;-76
2022/04/07 06:06:09;;;;;;;9.95;1.80;;;6.80;99.90;;;;;;4995198;28;20046;-76
2022/04/07 06:08:35;;;;;;;10.30;1.80;;;6.60;99.90;;;;;;4995505;28;20062;-76
2022/04/07 06:11:00;;;;;;;6.32;1.42;;;6.50;99.90;;;;;;4962657;28;20038;-75
2022/04/07 06:13:26;;;;;;;10.50;2.60;;;6.50;99.90;;;;;;4978653;28;20101;-77
2022/04/07 06:15:51;;;;;;;11.25;1.80;;;6.50;99.90;;;;;;4962551;28;20374;-76
2022/04/07 06:18:17;;;;;;;10.13;2.00;;;6.50;99.90;;;;;;4978824;28;20116;-78
2022/04/07 06:20:49;;;;;;;10.68;2.28;;;6.50;99.90;;;;;;4978954;28;20070;-78
2022/04/07 06:23:16;;;;;;;8.55;1.95;;;6.80;99.90;;;;;;4962677;28;20030;-76
2022/04/07 06:25:41;;;;;;;9.73;1.92;;;6.40;99.90;;;;;;4978731;28;20042;-78
2022/04/07 06:28:07;;;;;;;7.07;1.80;;;6.30;99.90;;;;;;4978784;28;20061;-77
2022/04/07 06:30:33;;;;;;;6.38;1.63;;;6.30;99.90;;;;;;4978474;28;20038;-77
2022/04/07 06:32:58;;;;;;;11.07;1.60;;;6.30;99.90;;;;;;4962567;28;20042;-78
2022/04/07 06:35:24;;;;;;;7.65;1.58;;;6.20;99.90;;;;;;4995856;28;20046;-76
2022/04/07 06:37:56;;;;;;;5.90;1.38;;;6.10;99.90;;;;;;4989024;28;20057;-76
2022/04/07 06:40:27;;;;;;;5.88;1.60;;;6.10;99.90;;;;;;4978990;28;20163;-77
2022/04/07 06:42:54;;;;;;;6.72;1.30;;;6.10;99.90;;;;;;4974081;28;20046;-75
2022/04/07 06:45:21;;;;;;;5.85;1.40;;;6.10;99.90;;;;;;4978612;28;20064;-75
2022/04/07 06:47:46;;;;;;;7.28;1.52;;;6.00;99.90;;;;;;4978070;28;20049;-76
2022/04/07 06:50:13;;;;;;;3.22;1.23;;;6.00;99.90;;;;;;4962397;28;20141;-75
2022/04/07 06:52:40;;;;;;;4.63;1.60;;;6.00;99.90;;;;;;4979048;28;20053;-75
2022/04/07 06:55:07;;;;;;;4.95;1.35;;;6.00;99.90;;;;;;4978824;28;20422;-75
2022/04/07 06:57:50;;;;;;;5.75;1.30;;;6.00;99.90;;;;;;4978131;28;20109;-76
2022/04/07 07:00:17;;;;;;;4.80;1.63;;;6.00;99.90;;;;;;4978262;28;20046;-75
2022/04/07 07:02:47;;;;;;;5.07;1.23;;;6.00;99.90;;;;;;4961638;28;20371;-74
2022/04/07 07:05:12;;;;;;;7.03;1.63;;;6.00;99.90;;;;;;4977787;28;20065;-74
2022/04/07 07:07:38;;;;;;;6.63;1.50;;;6.00;99.90;;;;;;4978025;28;20030;-77
2022/04/07 07:10:04;;;;;;;4.32;1.52;;;6.50;99.90;;;;;;4995412;28;20045;-74
2022/04/07 07:12:30;;;;;;;5.22;1.30;;;6.00;99.90;;;;;;4978787;28;20042;-76
2022/04/07 07:14:55;;;;;;;3.90;1.10;;;6.00;99.90;;;;;;4982080;28;20374;-76
2022/04/07 07:17:21;;;;;;;3.85;1.33;;;6.10;99.90;;;;;;4982176;28;20119;-73
2022/04/07 07:19:46;;;;;;;3.80;1.30;;;6.20;99.90;;;;;;4999375;28;20042;-75
2022/04/07 07:22:12;;;;;;;3.25;1.25;;;6.20;99.90;;;;;;4997650;28;20048;-75
2022/04/07 07:24:37;;;;;;;3.72;1.35;;;6.20;99.90;;;;;;4999331;28;20042;-75
2022/04/07 07:27:03;;;;;;;2.92;0.90;;;6.20;99.90;;;;;;4982099;28;20046;-74
2022/04/07 07:29:29;;;;;;;3.00;1.02;;;6.20;99.90;;;;;;4996631;28;20085;-74
2022/04/07 07:31:55;;;;;;;2.33;1.10;;;6.30;99.90;;;;;;4965973;28;20050;-75
2022/04/07 07:34:20;;;;;;;3.45;1.15;;;6.30;99.90;;;;;;4997932;28;20062;-74
2022/04/07 07:36:46;;;;;;;4.90;1.15;;;6.30;99.90;;;;;;4981587;28;20061;-73
2022/04/07 07:39:11;;;;;;;3.55;1.20;;;6.40;99.90;;;;;;4981694;28;20050;-75
2022/04/07 07:41:38;;;;;;;4.68;1.10;;;6.40;99.90;;;;;;4982228;28;20077;-75
2022/04/07 07:44:04;;;;;;;4.13;1.05;;;6.40;99.90;;;;;;4981931;28;20050;-76
2022/04/07 07:46:32;;;;;;;3.80;1.17;;;6.40;99.90;;;;;;4999177;28;20134;-75
2022/04/07 07:48:57;;;;;;;3.60;1.27;;;6.40;99.90;;;;;;4998643;28;20058;-74
2022/04/07 07:51:23;;;;;;;4.15;1.20;;;7.10;99.90;;;;;;4981551;28;20042;-74
2022/04/07 07:53:48;;;;;;;5.93;1.30;;;6.40;99.90;;;;;;4977217;28;20082;-74
2022/04/07 07:56:14;;;;;;;4.65;1.30;;;6.50;99.90;;;;;;4961023;28;20055;-73
2022/04/07 07:58:40;;;;;;;6.22;1.40;;;6.50;99.90;;;;;;4961163;28;20113;-74
2022/04/07 08:01:05;;;;;;;5.47;1.30;;;6.60;99.90;;;;;;4976999;28;20105;-74
2022/04/07 08:03:31;;;;;;;4.70;1.40;;;6.60;99.90;;;;;;4941919;28;20065;-74
2022/04/07 08:05:56;;;;;;;4.10;1.23;;;6.60;99.90;;;;;;4976669;28;20074;-74
2022/04/07 08:08:22;;;;;;;5.13;1.10;;;6.70;99.90;;;;;;4944849;28;20415;-75
2022/04/07 08:10:48;;;;;;;5.93;1.30;;;6.70;99.90;;;;;;4976990;28;20054;-76
2022/04/07 08:13:14;;;;;;;3.83;1.10;;;6.80;99.90;;;;;;4944459;28;20054;-74
2022/04/07 08:15:39;;;;;;;4.38;1.13;;;6.90;99.90;;;;;;4976681;28;20055;-74
2022/04/07 08:18:05;;;;;;;6.38;1.30;;;7.00;99.90;;;;;;4977021;28;20050;-76
2022/04/07 08:20:31;;;;;;;5.05;1.33;;;7.00;99.90;;;;;;4960793;28;20062;-75
2022/04/07 08:22:57;;;;;;;5.15;1.33;;;7.00;99.90;;;;;;4961232;28;20376;-74
2022/04/07 08:25:22;;;;;;;6.55;1.30;;;7.00;99.90;;;;;;4991755;28;20060;-75
2022/04/07 08:27:48;;;;;;;4.90;1.13;;;7.00;99.90;;;;;;4981252;28;20410;-73
2022/04/07 08:30:14;;;;;;;4.78;1.17;;;7.00;99.90;;;;;;4981122;28;20447;-76
2022/04/07 08:32:39;;;;;;;5.95;1.55;;;7.10;99.90;;;;;;4997423;28;20121;-74
2022/04/07 08:35:05;;;;;;;7.68;1.40;;;7.00;99.90;;;;;;4980903;28;20087;-75
2022/04/07 08:37:31;;;;;;;6.57;1.50;;;7.20;99.90;;;;;;4997717;28;20112;-75
2022/04/07 08:39:57;;;;;;;5.30;1.08;;;7.40;99.90;;;;;;4981061;28;20458;-77
2022/04/07 08:42:23;;;;;;;4.13;1.15;;;7.60;99.90;;;;;;4980736;28;20112;-74
2022/04/07 08:44:49;;;;;;;4.55;1.33;;;7.80;99.90;;;;;;4980510;28;20473;-75
2022/04/07 08:47:18;;;;;;;5.78;1.33;;;7.80;99.90;;;;;;4997913;28;20128;-74
2022/04/07 08:49:44;;;;;;;4.82;1.45;;;7.80;99.90;;;;;;4998153;28;20058;-74
2022/04/07 08:52:11;;;;;;;8.18;1.63;;;8.00;99.90;;;;;;4980420;28;20046;-74
2022/04/07 08:54:37;;;;;;;8.27;1.63;;;8.30;99.90;;;;;;4980586;28;20092;-75
2022/04/07 08:57:03;;;;;;;8.10;1.50;;;8.70;99.90;;;;;;4997593;28;20046;-74
2022/04/07 08:59:29;;;;;;;5.22;1.20;;;8.90;99.90;;;;;;4980125;28;20061;-75
2022/04/07 09:02:03;;;;;;;4.10;1.17;;;9.10;99.90;;;;;;4997211;28;20038;-74
2022/04/07 09:04:29;;;;;;;;;;;9.20;99.90;;;;;;4997931;28;20046;-74
2022/04/07 09:06:55;;;;;;;7.28;1.58;;;9.30;99.90;;;;;;4997535;28;20067;-73
2022/04/07 09:09:22;;;;;;;7.00;1.40;;;9.60;99.90;;;;;;4964495;28;20065;-74
2022/04/07 09:11:54;;;;;;;10.95;1.70;;;9.70;99.90;;;;;;4979996;28;20112;-74
2022/04/07 09:14:20;;;;;;;4.60;1.30;;;10.00;99.90;;;;;;4997267;28;20344;-74
2022/04/07 09:16:46;;;;;;;8.50;1.60;;;10.00;99.90;;;;;;4979828;28;20038;-76
2022/04/07 09:19:11;;;;;;;9.57;1.60;;;9.90;99.90;;;;;;4996149;28;20042;-73
2022/04/07 09:21:37;;;;;;;5.28;1.70;;;9.90;99.90;;;;;;4996722;28;20046;-74
2022/04/07 09:24:07;;;;;;;6.38;1.20;;;9.90;99.90;;;;;;4980082;28;20038;-76
2022/04/07 09:26:41;;;;;;;6.10;1.42;;;9.90;99.90;;;;;;4997072;28;20112;-73
2022/04/07 09:29:11;;;;;;;10.05;1.80;;;9.90;99.90;;;;;;4964710;28;20046;-74
2022/04/07 09:31:39;;;;;;;10.73;1.73;;;10.00;99.90;;;;;;4961308;28;20046;-75
2022/04/07 09:34:05;;;;;;;5.75;1.42;;;10.10;99.90;;;;;;4979939;28;20077;-74
2022/04/07 09:36:31;;;;;;;7.65;2.05;;;10.10;99.90;;;;;;4963594;28;20431;-73
2022/04/07 09:38:58;;;;;;;6.65;1.50;;;10.10;99.90;;;;;;4979579;28;20121;-73
2022/04/07 09:41:27;;;;;;;8.02;1.58;;;10.00;99.90;;;;;;4963317;28;20470;-74
2022/04/07 09:43:58;;;;;;;7.85;2.03;;;10.00;99.90;;;;;;4979504;28;20054;-73
2022/04/07 09:46:35;;;;;;;8.38;1.70;;;10.00;99.90;;;;;;4979616;28;20054;-75
2022/04/07 09:49:09;;;;;;;5.00;1.67;;;10.00;99.90;;;;;;4976670;28;20058;-73
2022/04/07 09:51:48;;;;;;;14.20;1.70;;;10.30;99.90;;;;;;4996698;28;20042;-75
2022/04/07 09:54:17;;;;;;;16.38;2.63;;;10.50;99.90;;;;;;4996511;28;20042;-74
2022/04/07 09:56:46;;;;;;;8.68;1.83;;;10.80;99.90;;;;;;4996487;28;20077;-74
2022/04/07 09:59:16;;;;;;;10.85;2.15;;;11.20;99.90;;;;;;4996630;28;20046;-73
2022/04/07 10:01:42;;;;;;;13.20;2.03;;;11.20;99.90;;;;;;4995919;28;20108;-74
2022/04/07 10:04:08;;;;;;;12.20;2.22;;;11.10;99.90;;;;;;4979184;28;20046;-74
2022/04/07 10:06:36;;;;;;;8.93;2.20;;;11.00;99.90;;;;;;4974648;28;20050;-74
2022/04/07 10:09:04;;;;;;;9.13;2.35;;;11.00;99.90;;;;;;4978827;28;20458;-74
2022/04/07 10:11:33;;;;;;;13.18;2.05;;;10.90;99.90;;;;;;4978889;28;20042;-74
2022/04/07 10:13:59;;;;;;;12.75;1.98;;;10.70;99.90;;;;;;4996236;28;20371;-74
2022/04/07 10:16:26;;;;;;;7.68;2.00;;;11.00;99.90;;;;;;4978958;28;20350;-75
2022/04/07 10:19:05;;;;;;;11.90;2.47;;;10.80;99.90;;;;;;4962932;28;20074;-74
2022/04/07 10:22:08;;;;;;;12.85;2.42;;;11.00;99.90;;;;;;4962883;28;20371;-73
2022/04/07 10:24:44;;;;;;;13.77;2.55;;;11.10;99.90;;;;;;4978952;28;20057;-73
2022/04/07 10:27:12;;;;;;;8.98;1.92;;;11.20;99.90;;;;;;4962484;28;20046;-74
2022/04/07 10:29:38;;;;;;;7.63;2.10;;;11.10;99.90;;;;;;4978376;28;20054;-74
2022/04/07 10:32:13;;;;;;;8.98;1.90;;;11.00;99.90;;;;;;4978756;28;20043;-74
2022/04/07 10:34:42;;;;;;;13.25;2.15;;;11.00;99.90;;;;;;4996033;28;20050;-77
2022/04/07 10:37:09;;;;;;;10.38;2.50;;;10.80;99.90;;;;;;4995917;28;20053;-74
2022/04/07 10:39:39;;;;;;;9.00;2.10;;;10.90;99.90;;;;;;4959396;28;20046;-73
2022/04/07 10:42:05;;;;;;;10.63;2.00;;;10.80;99.90;;;;;;4995738;28;20057;-74
2022/04/07 10:44:33;;;;;;;11.93;2.78;;;10.80;99.90;;;;;;4979218;28;20058;-73
2022/04/07 10:47:03;;;;;;;8.60;2.28;;;10.80;99.90;;;;;;4978605;28;20053;-74
2022/04/07 10:49:30;;;;;;;9.80;2.42;;;10.90;99.90;;;;;;4995448;28;20371;-73
2022/04/07 10:52:02;;;;;;;12.13;2.65;;;11.00;99.90;;;;;;4978416;28;20103;-74
2022/04/07 10:54:28;;;;;;;10.18;2.47;;;10.90;99.90;;;;;;4978961;28;20050;-75
2022/04/07 10:56:56;;;;;;;12.45;2.42;;;10.80;99.90;;;;;;4978219;28;20057;-74
2022/04/07 10:59:34;;;;;;;10.30;2.50;;;10.60;99.90;;;;;;4978001;28;20042;-73
2022/04/07 11:02:10;;;;;;;13.15;2.22;;;10.40;99.90;;;;;;4978503;28;20045;-74
2022/04/07 11:04:59;;;;;;;12.55;2.58;;;10.40;99.90;;;;;;4977971;28;20521;-75
2022/04/07 11:07:25;;;;;;;13.50;2.65;;;10.60;99.90;;;;;;4978067;28;20121;-75
2022/04/07 11:09:53;;;;;;;12.85;2.50;;;10.70;99.90;;;;;;4962596;28;20070;-75
2022/04/07 11:12:22;;;;;;;7.75;1.85;;;10.80;99.90;;;;;;4994644;28;20422;-74
2022/04/07 11:14:49;;;;;;;7.68;2.20;;;10.60;99.90;;;;;;4978173;28;20117;-75
2022/04/07 11:17:31;;;;;;;13.95;2.22;;;10.10;99.90;;;;;;4978107;28;20054;-75
2022/04/07 11:20:23;;;;;;;10.27;2.50;;;9.70;99.90;;;;;;4995297;28;20125;-74
2022/04/07 11:22:55;;;;;;;7.80;2.10;;;9.50;99.90;;;;;;4978416;28;20057;-75
2022/04/07 11:25:46;;;;;;;14.85;2.85;;;9.50;99.90;;;;;;4993926;28;20525;-75
2022/04/07 11:28:17;;;;;;;11.73;2.50;;;9.40;99.90;;;;;;4978396;28;20091;-73
2022/04/07 11:30:53;;;;;;;20.50;3.25;;;9.60;99.90;;;;;;4961272;28;20049;-75
2022/04/07 11:33:25;;;;;;;14.48;2.85;;;9.70;99.90;;;;;;4977826;28;20386;-75
2022/04/07 11:36:00;;;;;;;13.57;2.85;;;9.90;99.90;;;;;;4977970;28;20055;-75
2022/04/07 11:38:29;;;;;;;12.90;2.63;;;10.10;99.90;;;;;;4994041;28;20054;-75
2022/04/07 11:41:01;;;;;;;16.60;3.05;;;10.40;99.90;;;;;;4994179;28;20412;-75
2022/04/07 11:43:27;;;;;;;14.40;3.08;;;10.60;99.90;;;;;;4995329;28;20474;-75
2022/04/07 11:45:56;;;;;;;13.38;2.80;;;10.90;99.90;;;;;;4995221;28;20053;-73
2022/04/07 11:48:25;;;;;;;15.07;2.88;;;11.20;99.90;;;;;;4994956;28;20074;-74
2022/04/07 11:50:51;;;;;;;14.63;3.20;;;11.50;99.90;;;;;;4994894;28;20057;-74
2022/04/07 11:53:17;;;;;;;16.30;3.00;;;11.60;99.90;;;;;;4995124;28;20054;-73
2022/04/07 11:55:43;;;;;;;17.40;3.08;;;11.60;99.90;;;;;;4995116;28;20363;-73
2022/04/07 11:58:15;;;;;;;9.95;2.53;;;11.40;99.90;;;;;;4978006;28;20042;-74
2022/04/07 12:00:40;;;;;;;16.30;3.45;;;11.40;99.90;;;;;;4998271;28;20046;-74
2022/04/07 12:03:06;;;;;;;13.68;3.00;;;11.40;99.90;;;;;;4997567;28;20050;-72
2022/04/07 12:05:40;;;;;;;14.30;2.35;;;11.40;99.90;;;;;;4997589;28;20352;-74
2022/04/07 12:08:13;;;;;;;11.23;2.63;;;11.40;99.90;;;;;;4981691;28;20370;-75
2022/04/07 12:10:44;;;;;;;15.30;2.90;;;11.40;99.90;;;;;;4981264;28;20141;-72
2022/04/07 12:13:10;;;;;;;11.98;2.38;;;11.50;99.90;;;;;;4981302;28;20053;-74
2022/04/07 12:15:37;;;;;;;13.50;2.67;;;11.60;99.90;;;;;;4998302;28;20332;-73
2022/04/07 12:18:08;;;;;;;13.02;2.47;;;11.80;99.90;;;;;;4995307;28;20054;-74
2022/04/07 12:20:35;;;;;;;13.43;2.92;;;11.80;99.90;;;;;;4981473;28;20061;-74
2022/04/07 12:23:04;;;;;;;12.10;2.83;;;11.90;99.90;;;;;;4998892;28;20108;-73
2022/04/07 12:25:30;;;;;;;13.02;2.40;;;12.00;99.90;;;;;;4998165;28;20050;-73
2022/04/07 12:28:12;;;;;;;14.85;3.28;;;12.10;99.90;;;;;;4998105;28;20518;-74
2022/04/07 12:30:56;;;;;;;12.15;2.47;;;12.10;99.90;;;;;;4997330;28;20042;-74
2022/04/07 12:33:40;;;;;;;;;;;12.00;99.90;;;;;;4998695;28;20103;-74
2022/04/07 12:36:12;;;;;;;;;;;11.90;99.90;;;;;;4981149;28;19963;-74
2022/04/07 12:38:39;;;;;;;19.70;2.70;;;11.80;99.90;;;;;;4997898;28;19930;-73
2022/04/07 12:41:17;;;;;;;12.57;2.72;;;11.80;99.90;;;;;;4997926;28;20081;-73
2022/04/07 12:43:50;;;;;;;10.68;2.55;;;11.70;99.90;;;;;;4997975;28;20443;-73
2022/04/07 12:46:18;;;;;;;5.97;1.42;;;11.40;99.90;;;;;;4981103;28;20088;-74
2022/04/07 12:49:03;;;;;;;6.20;1.58;;;11.00;99.90;;;;;;4997504;28;20061;-72
2022/04/07 12:51:29;;;;;;;6.07;1.63;;;10.70;99.90;;;;;;4997691;28;20089;-73